NCAR-RAP Real-Time Weather Data

Output produced by METARs form (07 March 2021  05:27 UTC)
found at http://weather.rap.ucar.edu/surface/
 
KSGF 070452Z 18005KT 10SM CLR 04/M02 A3028 RMK AO2 SLP258 T00441017
KSGF 070352Z 16003KT 10SM CLR 06/M01 A3028 RMK AO2 SLP258 T00561011
KSGF 070252Z 17004KT 10SM CLR 04/M01 A3027 RMK AO2 SLP257 T00391011 53005
KSGF 070152Z 16004KT 10SM CLR 06/M01 A3026 RMK AO2 SLP255 T00561011
KSGF 070052Z 18005KT 10SM CLR 07/00 A3026 RMK AO2 SLP254 T00720000
KSGF 062352Z 20004KT 10SM CLR 12/00 A3025 RMK AO2 SLP250 T01220000 10150 20111 55005
KSGF 062252Z 23004KT 10SM CLR 14/00 A3025 RMK AO2 SLP247 T01440000
KSGF 062152Z 22004KT 10SM CLR 14/M01 A3026 RMK AO2 SLP250 T01441006
KSGF 062052Z 11003KT 10SM CLR 14/M02 A3027 RMK AO2 SLP255 T01391017 58025
KSGF 061952Z 00000KT 10SM CLR 13/M04 A3029 RMK AO2 SLP263 T01331039
KSGF 061852Z 00000KT 10SM CLR 13/M06 A3032 RMK AO2 SLP272 T01281061
KSGF 061752Z 22006KT 10SM CLR 12/M05 A3035 RMK AO2 SLP281 T01171050 10117 21028 58001
KSGF 061652Z 20007KT 10SM CLR 10/M04 A3036 RMK AO2 SLP284 T01001039
KSGF 061552Z 17009KT 10SM CLR 08/M04 A3036 RMK AO2 SLP286 T00781039
KSGF 061452Z 18009KT 10SM CLR 05/M04 A3035 RMK AO2 SLP283 T00501039 51012
KSGF 061352Z 17005KT 10SM CLR 02/M03 A3034 RMK AO2 SLP282 T00221033
KSGF 061252Z 00000KT 10SM CLR M03/M07 A3033 RMK AO2 SLP279 T10281067
KSGF 061152Z 20004KT 10SM CLR M02/M06 A3031 RMK AO2 SLP272 70001 T10221061 10022 21022 53007
KSGF 061052Z 15004KT 10SM CLR M01/M06 A3031 RMK AO2 SLP269 T10111061
KSGF 060952Z 18004KT 10SM CLR M01/M06 A3029 RMK AO2 SLP265 T10111061
KSGF 060752Z 15004KT 10SM CLR M01/M06 A3030 RMK AO2 SLP268 T10061056